createdAt,value
2019-04-07T00:00:15.335Z,100756.45
2019-04-07T00:02:42.592Z,100756.52
2019-04-07T00:05:14.174Z,100757.98
2019-04-07T00:07:39.387Z,100758.78
2019-04-07T00:10:08.333Z,100752.72
2019-04-07T00:12:37.905Z,100757.03
2019-04-07T00:15:06.001Z,100757.03
2019-04-07T00:17:33.234Z,100762.84
2019-04-07T00:20:00.664Z,100768.45
2019-04-07T00:22:28.038Z,100760.47
2019-04-07T00:24:55.614Z,100761.41
2019-04-07T00:27:23.031Z,100756.37
2019-04-07T00:29:50.833Z,100758.94
2019-04-07T00:32:18.256Z,100758.38
2019-04-07T00:34:45.539Z,100753.64
2019-04-07T00:37:12.890Z,100755.39
2019-04-07T00:39:40.209Z,100756.70
2019-04-07T00:42:07.553Z,100758.33
2019-04-07T00:44:35.375Z,100755.17
2019-04-07T00:47:03.106Z,100748.17
2019-04-07T00:49:31.128Z,100749.77
2019-04-07T00:51:59.825Z,100752.27
2019-04-07T00:54:27.034Z,100751.09
2019-04-07T00:56:54.492Z,100753.30
2019-04-07T00:59:21.716Z,100751.62
2019-04-07T01:01:48.912Z,100752.69
2019-04-07T01:04:16.457Z,100748.90
2019-04-07T01:06:43.802Z,100748.10
2019-04-07T01:09:11.428Z,100746.85
2019-04-07T01:11:38.797Z,100745.59
2019-04-07T01:14:07.004Z,100745.75
2019-04-07T01:16:34.435Z,100741.22
2019-04-07T01:19:02.293Z,100743.19
2019-04-07T01:21:30.304Z,100743.72
2019-04-07T01:23:57.864Z,100745.37
2019-04-07T01:26:25.259Z,100743.83
2019-04-07T01:28:54.529Z,100743.63
2019-04-07T01:31:22.474Z,100742.62
2019-04-07T01:33:49.806Z,100738.70
2019-04-07T01:36:17.232Z,100736.44
2019-04-07T01:38:44.561Z,100742.64
2019-04-07T01:41:24.030Z,100741.27
2019-04-07T01:44:00.142Z,100744.75
2019-04-07T01:46:37.076Z,100744.18
2019-04-07T01:49:13.476Z,100742.24
2019-04-07T01:51:46.673Z,100743.32
2019-04-07T01:54:32.002Z,100737.18
2019-04-07T01:57:15.931Z,100738.98
2019-04-07T02:00:14.668Z,100737.67
2019-04-07T02:02:56.897Z,100734.79
2019-04-07T02:06:03.877Z,100735.73
2019-04-07T02:08:38.589Z,100732.59
2019-04-07T02:11:31.728Z,100725.92
2019-04-07T02:14:19.301Z,100729.53
2019-04-07T02:16:59.345Z,100729.44
2019-04-07T02:19:49.930Z,100726.35
2019-04-07T02:22:42.718Z,100729.77
2019-04-07T02:25:26.401Z,100731.70
2019-04-07T02:28:12.177Z,100729.80
2019-04-07T02:31:00.656Z,100731.02
2019-04-07T02:33:51.090Z,100731.08
2019-04-07T02:36:30.281Z,100731.28
2019-04-07T02:39:13.131Z,100726.33
2019-04-07T02:41:52.015Z,100726.03
2019-04-07T02:44:53.946Z,100714.67
2019-04-07T02:47:39.443Z,100725.94
2019-04-07T02:50:26.311Z,100725.87
2019-04-07T02:53:13.490Z,100720.55
2019-04-07T02:56:01.837Z,100722.78
2019-04-07T02:58:45.205Z,100714.93
2019-04-07T03:01:35.148Z,100719.30
2019-04-07T03:04:22.967Z,100717.98
2019-04-07T03:07:25.113Z,100723.57
2019-04-07T03:10:31.102Z,100720.02
2019-04-07T03:13:24.306Z,100720.69
2019-04-07T03:16:12.528Z,100725.45
2019-04-07T03:18:44.502Z,100720.19
2019-04-07T03:21:28.304Z,100719.83
2019-04-07T03:24:08.047Z,100724.92
2019-04-07T03:26:55.595Z,100722.36
2019-04-07T03:29:45.347Z,100722.72
2019-04-07T03:32:37.514Z,100732.37
2019-04-07T03:35:34.399Z,100725.70
2019-04-07T03:38:33.627Z,100725.02
2019-04-07T03:41:19.705Z,100721.77
2019-04-07T03:43:55.055Z,100726.98
2019-04-07T03:46:45.779Z,100729.29
2019-04-07T03:49:50.988Z,100725.08
2019-04-07T03:52:28.749Z,100730.01
2019-04-07T03:55:11.806Z,100732.11
2019-04-07T03:57:53.447Z,100731.39
2019-04-07T04:01:25.783Z,100731.39
2019-04-07T04:04:13.738Z,100724.91
2019-04-07T04:07:00.120Z,100728.40
2019-04-07T04:09:47.603Z,100727.08
2019-04-07T04:12:20.063Z,100727.38
2019-04-07T04:15:00.559Z,100733.03
2019-04-07T04:17:28.990Z,100733.84
2019-04-07T04:19:56.236Z,100734.20
2019-04-07T04:22:23.461Z,100741.43
2019-04-07T04:24:51.776Z,100735.69
2019-04-07T04:27:19.012Z,100738.02
2019-04-07T04:29:46.563Z,100741.10
2019-04-07T04:32:13.945Z,100739.69
2019-04-07T04:34:41.253Z,100745.31
2019-04-07T04:37:09.429Z,100739.76
2019-04-07T04:39:37.494Z,100743.80
2019-04-07T04:42:05.538Z,100744.52
2019-04-07T04:44:32.988Z,100747.73
2019-04-07T04:47:01.616Z,100753.88
2019-04-07T04:49:29.687Z,100753.29
2019-04-07T04:51:57.150Z,100757.98
2019-04-07T04:54:24.904Z,100758.09
2019-04-07T04:56:53.529Z,100761.40
2019-04-07T04:59:21.656Z,100766.75
2019-04-07T05:01:49.055Z,100758.28
2019-04-07T05:04:16.309Z,100768.70
2019-04-07T05:06:43.654Z,100767.12
2019-04-07T05:09:11.054Z,100764.91
2019-04-07T05:11:38.339Z,100767.12
2019-04-07T05:14:05.917Z,100776.81
2019-04-07T05:16:33.281Z,100778.22
2019-04-07T05:19:00.759Z,100792.16
2019-04-07T05:21:28.213Z,100792.16
2019-04-07T05:23:56.164Z,100790.60
2019-04-07T05:26:24.037Z,100783.94
2019-04-07T05:28:51.462Z,100787.32
2019-04-07T05:31:18.778Z,100793.50
2019-04-07T05:33:46.489Z,100791.00
2019-04-07T05:36:13.815Z,100793.66
2019-04-07T05:38:41.111Z,100798.58
2019-04-07T05:41:08.319Z,100805.67
2019-04-07T05:43:35.581Z,100800.91
2019-04-07T05:46:05.861Z,100801.98
2019-04-07T05:48:32.654Z,100802.19
2019-04-07T05:51:01.058Z,100805.45
2019-04-07T05:53:28.657Z,100808.66
2019-04-07T05:55:56.281Z,100808.70
2019-04-07T05:58:24.185Z,100812.89
2019-04-07T06:00:51.687Z,100819.89
2019-04-07T06:03:20.316Z,100811.17
2019-04-07T06:05:50.810Z,100817.80
2019-04-07T06:08:24.629Z,100821.25
2019-04-07T06:10:48.927Z,100816.59
2019-04-07T06:13:17.467Z,100816.59
2019-04-07T06:15:45.718Z,100821.05
2019-04-07T06:18:13.778Z,100822.89
2019-04-07T06:20:44.106Z,100821.42
2019-04-07T06:23:10.309Z,100825.08
2019-04-07T06:25:41.535Z,100827.80
2019-04-07T06:28:07.191Z,100822.97
2019-04-07T06:30:36.201Z,100821.88
2019-04-07T06:33:06.120Z,100814.77
2019-04-07T06:35:33.580Z,100822.64
2019-04-07T06:38:05.240Z,100817.79
2019-04-07T06:40:30.623Z,100815.59
2019-04-07T06:42:57.951Z,100820.49
2019-04-07T06:45:30.596Z,100811.07
2019-04-07T06:48:01.530Z,100821.90
2019-04-07T06:50:56.627Z,100821.90
2019-04-07T06:53:46.785Z,100825.59
2019-04-07T06:56:46.775Z,100827.11
2019-04-07T06:59:26.131Z,100819.19
2019-04-07T07:02:15.704Z,100825.28
2019-04-07T07:05:02.984Z,100825.28
2019-04-07T07:07:53.106Z,100825.97
2019-04-07T07:10:39.951Z,100831.08
2019-04-07T07:13:29.252Z,100831.76
2019-04-07T07:16:20.734Z,100831.76
2019-04-07T07:19:06.412Z,100838.81
2019-04-07T07:22:13.141Z,100841.12
2019-04-07T07:24:38.101Z,100839.25
2019-04-07T07:27:09.352Z,100843.31
2019-04-07T07:29:36.217Z,100842.05
2019-04-07T07:32:04.859Z,100842.05
2019-04-07T07:34:32.383Z,100846.64
2019-04-07T07:36:59.989Z,100842.39
2019-04-07T07:39:27.273Z,100845.12
2019-04-07T07:41:55.095Z,100843.84
2019-04-07T07:44:22.428Z,100849.78
2019-04-07T07:46:51.500Z,100848.98
2019-04-07T07:49:19.195Z,100844.83
2019-04-07T07:51:48.421Z,100850.55
2019-04-07T07:54:16.179Z,100854.13
2019-04-07T07:56:49.421Z,100856.32
2019-04-07T07:59:13.430Z,100861.57
2019-04-07T08:01:44.281Z,100865.91
2019-04-07T08:04:09.824Z,100855.72
2019-04-07T08:06:40.191Z,100856.88
2019-04-07T08:09:12.888Z,100857.47
2019-04-07T08:11:37.276Z,100861.22
2019-04-07T08:14:04.556Z,100860.63
2019-04-07T08:16:32.550Z,100861.14
2019-04-07T08:19:01.305Z,100863.91
2019-04-07T08:21:29.137Z,100862.42
2019-04-07T08:23:56.807Z,100862.91
2019-04-07T08:26:25.148Z,100857.14
2019-04-07T08:28:53.379Z,100868.09
2019-04-07T08:31:21.541Z,100863.36
2019-04-07T08:33:51.240Z,100857.04
2019-04-07T08:36:18.322Z,100859.14
2019-04-07T08:38:45.629Z,100859.05
2019-04-07T08:41:15.481Z,100867.17
2019-04-07T08:43:42.099Z,100860.27
2019-04-07T08:46:09.943Z,100855.33
2019-04-07T08:48:37.433Z,100861.39
2019-04-07T08:51:04.786Z,100856.30
2019-04-07T08:53:32.012Z,100866.73
2019-04-07T08:55:59.882Z,100862.84
2019-04-07T08:58:28.983Z,100863.13
2019-04-07T09:00:57.359Z,100863.98
2019-04-07T09:03:24.681Z,100860.66
2019-04-07T09:05:57.403Z,100860.66
2019-04-07T09:08:24.962Z,100868.25
2019-04-07T09:11:06.723Z,100861.07
2019-04-07T09:13:34.295Z,100862.91
2019-04-07T09:16:24.680Z,100856.71
2019-04-07T09:19:09.594Z,100860.34
2019-04-07T09:22:08.311Z,100863.90
2019-04-07T09:25:06.606Z,100865.80
2019-04-07T09:27:49.321Z,100866.30
2019-04-07T09:30:48.892Z,100860.94
2019-04-07T09:33:42.121Z,100869.80
2019-04-07T09:36:18.016Z,100862.76
2019-04-07T09:38:57.036Z,100862.71
2019-04-07T09:41:52.710Z,100869.80
2019-04-07T09:44:40.209Z,100871.52
2019-04-07T09:47:21.488Z,100868.89
2019-04-07T09:50:14.249Z,100871.63
2019-04-07T09:53:03.914Z,100878.34
2019-04-07T09:55:41.112Z,100871.22
2019-04-07T09:58:21.667Z,100871.23
2019-04-07T10:01:06.709Z,100878.70
2019-04-07T10:03:43.687Z,100880.04
2019-04-07T10:06:25.744Z,100872.13
2019-04-07T10:09:05.648Z,100872.15
2019-04-07T10:11:57.905Z,100883.68
2019-04-07T10:14:48.836Z,100871.70
2019-04-07T10:17:35.725Z,100877.45
2019-04-07T10:20:32.573Z,100879.20
2019-04-07T10:23:16.275Z,100882.72
2019-04-07T10:25:56.198Z,100874.76
2019-04-07T10:28:43.461Z,100880.10
2019-04-07T10:31:43.247Z,100875.17
2019-04-07T10:34:31.035Z,100879.12
2019-04-07T10:37:22.043Z,100882.72
2019-04-07T10:40:16.713Z,100879.62
2019-04-07T10:42:55.533Z,100881.88
2019-04-07T10:45:38.288Z,100879.66
2019-04-07T10:48:28.606Z,100884.57
2019-04-07T10:51:10.448Z,100882.82
2019-04-07T10:53:57.328Z,100879.72
2019-04-07T10:56:56.386Z,100879.32
2019-04-07T10:59:53.236Z,100883.27
2019-04-07T11:02:29.413Z,100877.06
2019-04-07T11:05:16.257Z,100874.83
2019-04-07T11:08:09.091Z,100884.58
2019-04-07T11:11:01.655Z,100875.28
2019-04-07T11:13:49.996Z,100886.38
2019-04-07T11:16:46.301Z,100882.38
2019-04-07T11:19:53.025Z,100889.97
2019-04-07T11:22:38.307Z,100878.00
2019-04-07T11:25:34.741Z,100888.21
2019-04-07T11:28:20.843Z,100882.88
2019-04-07T11:30:57.444Z,100885.10
2019-04-07T11:33:47.063Z,100880.20
2019-04-07T11:36:23.475Z,100885.52
2019-04-07T11:38:59.417Z,100884.63
2019-04-07T11:42:05.733Z,100881.05
2019-04-07T11:44:55.469Z,100882.84
2019-04-07T11:47:42.769Z,100881.05
2019-04-07T11:50:32.706Z,100877.92
2019-04-07T11:53:18.344Z,100877.87
2019-04-07T11:56:23.950Z,100875.70
2019-04-07T11:59:22.794Z,100873.91
2019-04-07T12:02:12.607Z,100876.03
2019-04-07T12:05:08.248Z,100875.53
2019-04-07T12:08:10.464Z,100873.73
2019-04-07T12:11:06.604Z,100876.37
2019-04-07T12:13:42.889Z,100876.34
2019-04-07T12:16:35.097Z,100878.16
2019-04-07T12:19:23.900Z,100888.44
2019-04-07T12:22:05.539Z,100882.67
2019-04-07T12:24:50.506Z,100879.52
2019-04-07T12:27:47.137Z,100876.42
2019-04-07T12:30:36.931Z,100878.23
2019-04-07T12:33:29.664Z,100878.67
2019-04-07T12:36:30.228Z,100873.34
2019-04-07T12:39:23.044Z,100873.27
2019-04-07T12:42:07.067Z,100871.10
2019-04-07T12:44:53.823Z,100878.67
2019-04-07T12:47:39.773Z,100875.55
2019-04-07T12:50:39.220Z,100867.92
2019-04-07T12:53:33.476Z,100875.93
2019-04-07T12:56:31.539Z,100870.08
2019-04-07T12:59:15.737Z,100867.37
2019-04-07T13:01:50.990Z,100868.33
2019-04-07T13:04:40.784Z,100864.80
2019-04-07T13:07:37.612Z,100868.36
2019-04-07T13:10:14.372Z,100863.34
2019-04-07T13:12:55.823Z,100866.06
2019-04-07T13:15:38.924Z,100860.34
2019-04-07T13:18:37.779Z,100859.00
2019-04-07T13:21:24.567Z,100857.60
2019-04-07T13:24:12.700Z,100863.05
2019-04-07T13:27:14.154Z,100862.13
2019-04-07T13:30:04.114Z,100857.65
2019-04-07T13:32:57.550Z,100861.61
2019-04-07T13:35:49.263Z,100855.81
2019-04-07T13:38:22.961Z,100856.72
2019-04-07T13:41:12.263Z,100860.73
2019-04-07T13:44:08.873Z,100860.16
2019-04-07T13:47:01.868Z,100854.80
2019-04-07T13:49:41.331Z,100858.73
2019-04-07T13:52:19.325Z,100875.72
2019-04-07T13:54:54.910Z,100859.30
2019-04-07T13:57:42.816Z,100858.39
2019-04-07T14:00:18.473Z,100855.69
2019-04-07T14:02:56.096Z,100866.00
2019-04-07T14:05:38.840Z,100856.67
2019-04-07T14:08:25.808Z,100861.94
2019-04-07T14:11:11.053Z,100865.06
2019-04-07T14:13:57.671Z,100875.84
2019-04-07T14:16:43.250Z,100869.17
2019-04-07T14:19:32.063Z,100873.41
2019-04-07T14:22:14.458Z,100876.12
2019-04-07T14:24:53.758Z,100869.04
2019-04-07T14:27:41.385Z,100866.84
2019-04-07T14:30:35.306Z,100873.52
2019-04-07T14:33:34.058Z,100871.30
2019-04-07T14:36:23.823Z,100873.07
2019-04-07T14:39:17.709Z,100872.19
2019-04-07T14:42:07.608Z,100867.73
2019-04-07T14:44:48.692Z,100872.62
2019-04-07T14:47:31.291Z,100875.77
2019-04-07T14:50:17.118Z,100865.56
2019-04-07T14:53:07.699Z,100868.63
2019-04-07T14:56:00.190Z,100873.98
2019-04-07T14:58:48.500Z,100869.11
2019-04-07T15:01:36.821Z,100872.65
2019-04-07T15:04:05.176Z,100880.22
2019-04-07T15:06:35.074Z,100881.55
2019-04-07T15:09:13.597Z,100873.95
2019-04-07T15:11:51.264Z,100877.49
2019-04-07T15:14:19.211Z,100885.02
2019-04-07T15:16:47.850Z,100881.46
2019-04-07T15:19:17.846Z,100884.55
2019-04-07T15:21:45.285Z,100887.66
2019-04-07T15:24:13.274Z,100881.84
2019-04-07T15:26:40.613Z,100882.73
2019-04-07T15:29:10.606Z,100888.49
2019-04-07T15:31:37.455Z,100894.27
2019-04-07T15:34:08.572Z,100884.91
2019-04-07T15:36:33.990Z,100886.27
2019-04-07T15:39:01.299Z,100891.13
2019-04-07T15:41:28.535Z,100888.91
2019-04-07T15:43:55.827Z,100892.84
2019-04-07T15:46:23.625Z,100882.62
2019-04-07T15:48:54.283Z,100891.45
2019-04-07T15:51:20.182Z,100886.58
2019-04-07T15:53:51.330Z,100893.52
2019-04-07T15:56:18.416Z,100891.77
2019-04-07T15:58:46.418Z,100892.63
2019-04-07T16:01:13.927Z,100891.73
2019-04-07T16:03:41.926Z,100895.73
2019-04-07T16:06:09.757Z,100897.42
2019-04-07T16:08:39.311Z,100895.64
2019-04-07T16:11:07.020Z,100901.81
2019-04-07T16:13:34.348Z,100902.64
2019-04-07T16:16:02.652Z,100907.48
2019-04-07T16:18:30.087Z,100904.89
2019-04-07T16:20:58.022Z,100910.97
2019-04-07T16:23:26.137Z,100910.11
2019-04-07T16:25:54.951Z,100907.41
2019-04-07T16:28:22.870Z,100911.77
2019-04-07T16:30:52.041Z,100913.08
2019-04-07T16:33:19.523Z,100909.53
2019-04-07T16:35:51.941Z,100910.41
2019-04-07T16:38:16.395Z,100920.58
2019-04-07T16:40:44.630Z,100916.11
2019-04-07T16:43:16.129Z,100908.55
2019-04-07T16:45:44.135Z,100915.97
2019-04-07T16:48:10.828Z,100917.72
2019-04-07T16:50:38.237Z,100916.28
2019-04-07T16:53:07.576Z,100922.45
2019-04-07T16:55:41.806Z,100913.71
2019-04-07T16:58:09.663Z,100916.70
2019-04-07T17:00:38.230Z,100917.06
2019-04-07T17:03:07.730Z,100912.59
2019-04-07T17:05:35.485Z,100917.35
2019-04-07T17:08:03.816Z,100920.48
2019-04-07T17:10:34.139Z,100915.11
2019-04-07T17:13:02.813Z,100922.41
2019-04-07T17:15:29.675Z,100925.47
2019-04-07T17:17:57.036Z,100926.20
2019-04-07T17:20:27.187Z,100918.15
2019-04-07T17:22:54.150Z,100917.14
2019-04-07T17:25:21.695Z,100924.45
2019-04-07T17:27:49.786Z,100919.18
2019-04-07T17:30:18.396Z,100922.61
2019-04-07T17:32:45.884Z,100919.78
2019-04-07T17:35:17.192Z,100925.02
2019-04-07T17:37:43.798Z,100927.70
2019-04-07T17:40:14.730Z,100924.57
2019-04-07T17:42:45.058Z,100926.67
2019-04-07T17:45:43.109Z,100934.09
2019-04-07T17:48:53.321Z,100933.18
2019-04-07T17:51:40.370Z,100935.71
2019-04-07T17:54:36.543Z,100940.81
2019-04-07T17:57:12.015Z,100942.17
2019-04-07T17:59:58.270Z,100944.73
2019-04-07T18:02:54.865Z,100947.31
2019-04-07T18:05:32.416Z,100948.23
2019-04-07T18:08:19.893Z,100948.59
2019-04-07T18:11:00.987Z,100948.95
2019-04-07T18:13:51.587Z,100954.78
2019-04-07T18:16:46.110Z,100959.31
2019-04-07T18:19:34.830Z,100963.07
2019-04-07T18:22:23.523Z,100962.39
2019-04-07T18:25:03.728Z,100973.14
2019-04-07T18:27:53.333Z,100976.86
2019-04-07T18:30:47.233Z,100977.16
2019-04-07T18:33:25.388Z,100980.97
2019-04-07T18:36:07.009Z,100982.80
2019-04-07T18:39:09.861Z,100989.51
2019-04-07T18:42:11.416Z,100990.02
2019-04-07T18:45:04.058Z,100996.18
2019-04-07T18:47:48.332Z,101003.33
2019-04-07T18:50:45.423Z,101010.33
2019-04-07T18:53:30.739Z,101011.42
2019-04-07T18:56:27.146Z,101012.59
2019-04-07T18:59:32.008Z,101018.62
2019-04-07T19:02:24.867Z,101024.94
2019-04-07T19:05:05.086Z,101025.76
2019-04-07T19:07:59.522Z,101030.44
2019-04-07T19:11:12.361Z,101030.63
2019-04-07T19:14:01.814Z,101038.61
2019-04-07T19:16:47.099Z,101042.66
2019-04-07T19:19:34.056Z,101041.69
2019-04-07T19:22:15.872Z,101046.67
2019-04-07T19:25:21.452Z,101051.13
2019-04-07T19:28:11.460Z,101049.73
2019-04-07T19:31:10.735Z,101047.61
2019-04-07T19:34:16.180Z,101052.18
2019-04-07T19:36:50.043Z,101051.01
2019-04-07T19:39:35.242Z,101063.66
2019-04-07T19:42:20.615Z,101060.37
2019-04-07T19:45:11.191Z,101059.20
2019-04-07T19:47:55.238Z,101051.58
2019-04-07T19:50:56.338Z,101063.33
2019-04-07T19:53:43.294Z,101063.33
2019-04-07T19:56:19.256Z,101054.09
2019-04-07T19:59:08.304Z,101058.70
2019-04-07T20:02:09.631Z,101059.91
2019-04-07T20:04:55.064Z,101058.16
2019-04-07T20:07:40.441Z,101069.48
2019-04-07T20:10:30.708Z,101064.94
2019-04-07T20:13:19.858Z,101063.55
2019-04-07T20:15:59.189Z,101071.70
2019-04-07T20:18:45.923Z,101068.31
2019-04-07T20:21:49.358Z,101074.53
2019-04-07T20:24:20.371Z,101072.50
2019-04-07T20:27:07.183Z,101075.54
2019-04-07T20:30:00.528Z,101080.02
2019-04-07T20:32:35.255Z,101088.37
2019-04-07T20:35:21.784Z,101081.66
2019-04-07T20:38:04.778Z,101090.27
2019-04-07T20:40:44.438Z,101083.91
2019-04-07T20:43:33.010Z,101081.25
2019-04-07T20:46:29.531Z,101072.59
2019-04-07T20:49:35.768Z,101072.59
2019-04-07T20:52:25.006Z,101078.11
2019-04-07T20:55:19.504Z,101080.59
2019-04-07T20:58:16.263Z,101081.54
2019-04-07T21:01:04.631Z,101081.54
2019-04-07T21:04:04.505Z,101072.47
2019-04-07T21:06:54.975Z,101072.47
2019-04-07T21:09:41.993Z,101074.73
2019-04-07T21:12:31.064Z,101093.42
2019-04-07T21:15:31.142Z,101099.45
2019-04-07T21:18:39.128Z,101099.45
2019-04-07T21:21:29.184Z,101095.62
2019-04-07T21:24:21.804Z,101096.44
2019-04-07T21:26:57.960Z,101087.55
2019-04-07T21:29:45.861Z,101095.00
2019-04-07T21:32:27.191Z,101096.16
2019-04-07T21:35:25.925Z,101100.37
2019-04-07T21:38:11.208Z,101089.86
2019-04-07T21:40:58.020Z,101095.63
2019-04-07T21:43:30.139Z,101095.27
2019-04-07T21:46:22.438Z,101093.55
2019-04-07T21:49:10.724Z,101091.77
2019-04-07T21:52:00.110Z,101098.36
2019-04-07T21:55:06.003Z,101095.30
2019-04-07T21:57:41.751Z,101093.09
2019-04-07T22:00:31.630Z,101092.66
2019-04-07T22:03:22.238Z,101100.93
2019-04-07T22:06:07.389Z,101106.27
2019-04-07T22:08:48.343Z,101098.46
2019-04-07T22:11:15.637Z,101098.46
2019-04-07T22:13:42.963Z,101114.27
2019-04-07T22:16:10.277Z,101104.06
2019-04-07T22:18:39.207Z,101104.98
2019-04-07T22:21:07.654Z,101101.82
2019-04-07T22:23:35.059Z,101099.25
2019-04-07T22:26:02.559Z,101093.98
2019-04-07T22:28:30.346Z,101095.40
2019-04-07T22:30:59.357Z,101095.40
2019-04-07T22:33:30.123Z,101094.58
2019-04-07T22:35:55.980Z,101104.22
2019-04-07T22:38:23.800Z,101096.67
2019-04-07T22:40:52.149Z,101100.00
2019-04-07T22:43:20.018Z,101102.61
2019-04-07T22:45:58.843Z,101102.61
2019-04-07T22:48:18.371Z,101100.63
2019-04-07T22:50:48.044Z,101085.89
2019-04-07T22:53:15.362Z,101104.22
2019-04-07T22:55:42.572Z,101108.11
2019-04-07T22:58:09.829Z,101106.03
2019-04-07T23:00:37.158Z,101114.68
2019-04-07T23:03:04.577Z,101114.20
2019-04-07T23:05:31.917Z,101102.48
2019-04-07T23:07:59.912Z,101086.28
2019-04-07T23:10:27.494Z,101086.28
2019-04-07T23:12:55.259Z,101099.31
2019-04-07T23:15:22.883Z,101096.78
2019-04-07T23:17:50.139Z,101094.52
2019-04-07T23:20:17.522Z,101093.55
2019-04-07T23:22:44.801Z,101093.66
2019-04-07T23:25:12.255Z,101103.09
2019-04-07T23:27:39.499Z,101085.72
2019-04-07T23:30:07.431Z,101095.56
2019-04-07T23:32:34.678Z,101095.56
2019-04-07T23:35:02.038Z,101102.94
2019-04-07T23:37:29.302Z,101104.06
2019-04-07T23:39:56.588Z,101102.85
2019-04-07T23:42:24.250Z,101099.95
2019-04-07T23:44:52.003Z,101103.39
2019-04-07T23:47:19.518Z,101105.98
2019-04-07T23:49:46.881Z,101110.58
2019-04-07T23:52:14.559Z,101098.08
2019-04-07T23:54:41.984Z,101098.08
2019-04-07T23:57:09.400Z,101110.28
2019-04-07T23:59:36.584Z,101113.95
